createdAt,value
2019-05-25T00:01:46.292Z,67.58
2019-05-25T00:04:51.097Z,68.49
2019-05-25T00:07:55.967Z,68.51
2019-05-25T00:11:01.102Z,69.80
2019-05-25T00:14:05.906Z,70.05
2019-05-25T00:17:11.064Z,71.12
2019-05-25T00:20:16.927Z,71.17
2019-05-25T00:23:21.661Z,70.61
2019-05-25T00:26:27.473Z,72.32
2019-05-25T00:29:32.294Z,72.48
2019-05-25T00:32:37.459Z,72.29
2019-05-25T00:35:43.217Z,71.96
2019-05-25T00:38:48.082Z,72.10
2019-05-25T00:41:54.483Z,72.60
2019-05-25T00:44:59.883Z,72.08
2019-05-25T00:48:04.731Z,71.90
2019-05-25T00:51:09.805Z,72.10
2019-05-25T00:54:27.028Z,70.90
2019-05-25T00:57:21.255Z,71.54
2019-05-25T01:00:26.151Z,72.10
2019-05-25T01:03:30.973Z,70.68
2019-05-25T01:06:35.840Z,72.66
2019-05-25T01:09:40.797Z,72.62
2019-05-25T01:12:46.142Z,72.23
2019-05-25T01:15:51.272Z,71.50
2019-05-25T01:18:56.082Z,72.02
2019-05-25T01:22:00.902Z,71.92
2019-05-25T01:25:06.329Z,73.70
2019-05-25T01:28:11.566Z,72.53
2019-05-25T01:31:16.743Z,73.91
2019-05-25T01:34:21.492Z,72.84
2019-05-25T01:37:26.262Z,73.64
2019-05-25T01:40:31.321Z,73.34
2019-05-25T01:43:36.234Z,73.23
2019-05-25T01:46:41.429Z,73.73
2019-05-25T01:49:46.537Z,73.97
2019-05-25T01:52:51.592Z,73.98
2019-05-25T01:55:56.420Z,72.88
2019-05-25T01:59:01.138Z,73.82
2019-05-25T02:02:05.962Z,75.77
2019-05-25T02:05:11.508Z,76.78
2019-05-25T02:08:16.673Z,76.80
2019-05-25T02:11:21.429Z,77.32
2019-05-25T02:14:26.587Z,77.65
2019-05-25T02:17:31.319Z,77.54
2019-05-25T02:20:36.066Z,76.96
2019-05-25T02:23:41.142Z,76.35
2019-05-25T02:26:45.928Z,76.43
2019-05-25T02:29:51.106Z,76.65
2019-05-25T02:32:56.384Z,76.71
2019-05-25T02:36:01.522Z,77.06
2019-05-25T02:39:07.898Z,77.06
2019-05-25T02:42:13.042Z,77.16
2019-05-25T02:45:18.602Z,77.70
2019-05-25T02:48:24.598Z,77.49
2019-05-25T02:51:29.748Z,77.49
2019-05-25T02:54:34.585Z,77.99
2019-05-25T02:57:39.360Z,77.99
2019-05-25T03:00:44.250Z,78.31
2019-05-25T03:03:49.363Z,78.67
2019-05-25T03:06:55.194Z,79.90
2019-05-25T03:10:01.221Z,80.30
2019-05-25T03:13:06.209Z,80.30
2019-05-25T03:16:10.970Z,79.54
2019-05-25T03:19:15.714Z,79.75
2019-05-25T03:22:21.545Z,79.15
2019-05-25T03:25:26.647Z,79.56
2019-05-25T03:28:31.595Z,80.71
2019-05-25T03:31:36.355Z,81.72
2019-05-25T03:34:41.104Z,79.34
2019-05-25T03:37:45.879Z,81.14
2019-05-25T03:40:51.017Z,81.47
2019-05-25T03:43:55.777Z,82.03
2019-05-25T03:47:00.614Z,82.51
2019-05-25T03:50:06.570Z,81.81
2019-05-25T03:53:11.641Z,81.45
2019-05-25T03:56:16.622Z,80.52
2019-05-25T03:59:21.727Z,79.76
2019-05-25T04:02:26.864Z,79.76
2019-05-25T04:05:31.622Z,80.82
2019-05-25T04:08:36.379Z,80.96
2019-05-25T04:11:42.208Z,79.64
2019-05-25T04:14:47.301Z,80.86
2019-05-25T04:17:52.405Z,81.08
2019-05-25T04:20:57.495Z,81.41
2019-05-25T04:24:02.262Z,81.38
2019-05-25T04:27:07.309Z,82.04
2019-05-25T04:30:12.842Z,82.03
2019-05-25T04:33:17.594Z,81.74
2019-05-25T04:36:22.419Z,82.11
2019-05-25T04:39:27.143Z,82.33
2019-05-25T04:42:32.253Z,82.35
2019-05-25T04:45:37.078Z,82.35
2019-05-25T04:48:41.832Z,83.10
2019-05-25T04:51:46.608Z,83.02
2019-05-25T04:54:51.713Z,83.46
2019-05-25T04:57:56.779Z,83.35
2019-05-25T05:01:02.645Z,83.29
2019-05-25T05:04:07.479Z,83.65
2019-05-25T05:07:12.489Z,83.65
2019-05-25T05:10:17.459Z,83.50
2019-05-25T05:13:22.218Z,83.47
2019-05-25T05:16:26.978Z,82.40
2019-05-25T05:19:31.726Z,83.11
2019-05-25T05:22:36.473Z,81.40
2019-05-25T05:25:41.281Z,82.78
2019-05-25T05:28:49.140Z,82.08
2019-05-25T05:31:53.518Z,81.48
2019-05-25T05:34:59.512Z,81.70
2019-05-25T05:38:07.149Z,79.70
2019-05-25T05:41:13.225Z,81.23
2019-05-25T05:44:21.842Z,79.04
2019-05-25T05:47:28.779Z,79.79
2019-05-25T05:50:36.976Z,79.60
2019-05-25T05:53:43.652Z,78.52
2019-05-25T05:56:48.683Z,78.52
2019-05-25T05:59:53.523Z,78.68
2019-05-25T06:02:58.286Z,78.73
2019-05-25T06:06:03.514Z,77.67
2019-05-25T06:09:09.126Z,77.76
2019-05-25T06:12:14.223Z,77.62
2019-05-25T06:15:19.205Z,77.18
2019-05-25T06:18:24.101Z,77.75
2019-05-25T06:21:28.877Z,77.58
2019-05-25T06:24:33.780Z,77.28
2019-05-25T06:27:38.709Z,76.61
2019-05-25T06:30:43.981Z,76.15
2019-05-25T06:33:49.171Z,74.96
2019-05-25T06:36:54.104Z,75.44
2019-05-25T06:39:58.875Z,74.68
2019-05-25T06:43:04.318Z,74.68
2019-05-25T06:46:09.154Z,73.47
2019-05-25T06:49:14.016Z,73.91
2019-05-25T06:52:19.194Z,73.13
2019-05-25T06:55:23.897Z,71.79
2019-05-25T06:58:28.700Z,71.79
2019-05-25T07:01:33.546Z,70.60
2019-05-25T07:04:39.366Z,71.54
2019-05-25T07:07:44.570Z,70.96
2019-05-25T07:10:49.868Z,69.08
2019-05-25T07:13:54.991Z,66.96
2019-05-25T07:16:59.984Z,66.63
2019-05-25T07:20:06.211Z,66.81
2019-05-25T07:23:11.063Z,66.67
2019-05-25T07:26:15.893Z,65.99
2019-05-25T07:29:20.653Z,64.94
2019-05-25T07:32:25.466Z,65.42
2019-05-25T07:35:30.203Z,65.49
2019-05-25T07:38:35.052Z,65.45
2019-05-25T07:41:40.492Z,65.71
2019-05-25T07:44:45.287Z,63.80
2019-05-25T07:47:50.020Z,64.49
2019-05-25T07:50:55.300Z,64.09
2019-05-25T07:54:00.150Z,65.02
2019-05-25T07:57:05.547Z,65.23
2019-05-25T08:00:11.858Z,65.68
2019-05-25T08:03:16.656Z,64.77
2019-05-25T08:06:21.530Z,64.77
2019-05-25T08:09:26.356Z,64.31
2019-05-25T08:12:31.100Z,63.32
2019-05-25T08:15:36.149Z,63.02
2019-05-25T08:18:40.911Z,62.48
2019-05-25T08:21:46.031Z,60.69
2019-05-25T08:24:50.820Z,61.24
2019-05-25T08:27:55.628Z,62.13
2019-05-25T08:31:01.425Z,60.02
2019-05-25T08:34:06.406Z,61.26
2019-05-25T08:37:11.154Z,60.75
2019-05-25T08:40:16.220Z,60.40
2019-05-25T08:43:21.084Z,60.14
2019-05-25T08:46:26.161Z,60.46
2019-05-25T08:49:32.612Z,59.06
2019-05-25T08:52:37.519Z,58.61
2019-05-25T08:55:42.661Z,58.14
2019-05-25T08:58:48.833Z,58.21
2019-05-25T09:01:53.793Z,59.06
2019-05-25T09:04:58.904Z,57.30
2019-05-25T09:08:03.722Z,56.39
2019-05-25T09:11:09.017Z,57.51
2019-05-25T09:14:14.943Z,56.08
2019-05-25T09:17:19.965Z,55.14
2019-05-25T09:20:25.194Z,55.10
2019-05-25T09:23:30.189Z,55.11
2019-05-25T09:26:35.317Z,54.98
2019-05-25T09:29:40.509Z,53.80
2019-05-25T09:32:45.220Z,53.70
2019-05-25T09:35:50.402Z,52.98
2019-05-25T09:38:55.449Z,52.63
2019-05-25T09:42:00.307Z,53.44
2019-05-25T09:45:07.243Z,53.63
2019-05-25T09:48:12.253Z,54.95
2019-05-25T09:51:17.058Z,55.42
2019-05-25T09:54:21.868Z,55.52
2019-05-25T09:57:28.278Z,55.62
2019-05-25T10:00:33.849Z,54.83
2019-05-25T10:03:38.702Z,53.37
2019-05-25T10:06:43.604Z,53.70
2019-05-25T10:09:48.795Z,53.74
2019-05-25T10:12:53.632Z,53.50
2019-05-25T10:15:58.432Z,53.52
2019-05-25T10:19:03.157Z,53.11
2019-05-25T10:22:08.113Z,53.95
2019-05-25T10:25:13.225Z,52.10
2019-05-25T10:28:18.061Z,51.43
2019-05-25T10:31:23.114Z,50.29
2019-05-25T10:34:27.999Z,52.63
2019-05-25T10:37:33.456Z,50.59
2019-05-25T10:40:38.255Z,50.28
2019-05-25T10:43:43.104Z,48.78
2019-05-25T10:46:47.885Z,48.64
2019-05-25T10:49:52.756Z,48.03
2019-05-25T10:52:57.523Z,48.61
2019-05-25T10:56:02.808Z,47.56
2019-05-25T10:59:07.757Z,46.91
2019-05-25T11:02:12.513Z,45.84
2019-05-25T11:05:18.620Z,46.04
2019-05-25T11:08:23.395Z,46.83
2019-05-25T11:11:28.370Z,47.22
2019-05-25T11:14:33.168Z,47.52
2019-05-25T11:17:38.555Z,47.24
2019-05-25T11:20:43.378Z,47.53
2019-05-25T11:23:48.296Z,47.29
2019-05-25T11:26:53.285Z,46.96
2019-05-25T11:30:08.419Z,46.75
2019-05-25T11:33:04.619Z,46.71
2019-05-25T11:36:09.381Z,46.25
2019-05-25T11:39:14.238Z,44.12
2019-05-25T11:42:19.020Z,44.88
2019-05-25T11:45:24.911Z,43.45
2019-05-25T11:48:29.990Z,42.82
2019-05-25T11:51:35.028Z,40.56
2019-05-25T11:54:40.346Z,41.81
2019-05-25T11:57:46.332Z,42.95
2019-05-25T12:00:52.324Z,42.96
2019-05-25T12:03:57.174Z,43.53
2019-05-25T12:07:02.610Z,44.08
2019-05-25T12:10:09.021Z,43.70
2019-05-25T12:13:14.119Z,43.14
2019-05-25T12:16:19.062Z,43.98
2019-05-25T12:19:24.027Z,43.42
2019-05-25T12:22:28.803Z,44.31
2019-05-25T12:25:33.660Z,44.29
2019-05-25T12:28:38.410Z,41.62
2019-05-25T12:31:43.843Z,42.55
2019-05-25T12:34:48.641Z,42.54
2019-05-25T12:37:53.711Z,44.44
2019-05-25T12:40:58.562Z,41.65
2019-05-25T12:44:03.545Z,43.56
2019-05-25T12:47:08.404Z,43.54
2019-05-25T12:50:13.719Z,43.13
2019-05-25T12:53:18.488Z,44.09
2019-05-25T12:56:23.355Z,43.75
2019-05-25T12:59:28.174Z,43.92
2019-05-25T13:02:33.090Z,43.02
2019-05-25T13:05:37.969Z,43.72
2019-05-25T13:08:44.107Z,43.78
2019-05-25T13:11:49.021Z,43.66
2019-05-25T13:14:54.206Z,44.12
2019-05-25T13:17:59.685Z,43.83
2019-05-25T13:21:04.473Z,43.70
2019-05-25T13:24:09.273Z,43.88
2019-05-25T13:27:14.737Z,44.07
2019-05-25T13:30:20.405Z,43.21
2019-05-25T13:33:25.800Z,43.23
2019-05-25T13:36:30.834Z,43.19
2019-05-25T13:39:35.575Z,43.16
2019-05-25T13:42:40.314Z,43.65
2019-05-25T13:45:46.185Z,43.42
2019-05-25T13:48:51.440Z,42.80
2019-05-25T13:51:56.469Z,42.09
2019-05-25T13:55:01.309Z,41.68
2019-05-25T13:58:06.523Z,42.04
2019-05-25T14:01:25.617Z,41.41
2019-05-25T14:04:18.477Z,41.24
2019-05-25T14:07:23.591Z,40.23
2019-05-25T14:10:28.772Z,40.10
2019-05-25T14:13:34.132Z,39.62
2019-05-25T14:16:39.229Z,39.12
2019-05-25T14:19:44.313Z,36.86
2019-05-25T14:22:49.082Z,37.50
2019-05-25T14:25:53.922Z,37.54
2019-05-25T14:28:59.289Z,35.57
2019-05-25T14:32:04.179Z,35.54
2019-05-25T14:35:10.076Z,34.64
2019-05-25T14:38:14.944Z,34.71
2019-05-25T14:41:19.647Z,33.68
2019-05-25T14:44:24.732Z,33.17
2019-05-25T14:47:30.080Z,33.42
2019-05-25T14:50:36.861Z,32.17
2019-05-25T14:53:42.082Z,31.82
2019-05-25T14:56:46.838Z,31.48
2019-05-25T14:59:51.643Z,31.57
2019-05-25T15:02:56.470Z,30.60
2019-05-25T15:06:01.271Z,31.19
2019-05-25T15:09:07.359Z,31.24
2019-05-25T15:12:12.127Z,30.90
2019-05-25T15:15:17.242Z,30.70
2019-05-25T15:18:21.964Z,29.76
2019-05-25T15:21:27.042Z,30.65
2019-05-25T15:24:31.746Z,29.48
2019-05-25T15:27:37.072Z,29.70
2019-05-25T15:30:42.159Z,28.64
2019-05-25T15:33:47.022Z,28.24
2019-05-25T15:36:51.825Z,27.25
2019-05-25T15:39:56.943Z,27.81
2019-05-25T15:43:01.667Z,27.74
2019-05-25T15:46:06.979Z,27.65
2019-05-25T15:49:11.839Z,26.97
2019-05-25T15:52:17.005Z,28.12
2019-05-25T15:55:22.225Z,28.88
2019-05-25T15:58:27.086Z,29.08
2019-05-25T16:01:32.027Z,29.40
2019-05-25T16:04:37.276Z,29.61
2019-05-25T16:07:45.379Z,29.93
2019-05-25T16:10:50.290Z,30.17
2019-05-25T16:13:55.384Z,30.30
2019-05-25T16:17:00.633Z,29.98
2019-05-25T16:20:05.775Z,30.01
2019-05-25T16:23:13.543Z,30.14
2019-05-25T16:26:18.303Z,31.04
2019-05-25T16:29:23.471Z,31.14
2019-05-25T16:32:28.262Z,31.33
2019-05-25T16:35:33.413Z,30.93
2019-05-25T16:38:38.320Z,31.39
2019-05-25T16:41:43.461Z,32.24
2019-05-25T16:44:48.318Z,31.62
2019-05-25T16:47:53.287Z,32.00
2019-05-25T16:50:59.612Z,31.16
2019-05-25T16:54:04.430Z,30.58
2019-05-25T16:57:10.554Z,29.37
2019-05-25T17:00:19.638Z,29.19
2019-05-25T17:03:28.438Z,29.37
2019-05-25T17:06:31.870Z,30.22
2019-05-25T17:09:37.707Z,29.25
2019-05-25T17:12:42.715Z,28.86
2019-05-25T17:15:47.529Z,27.93
2019-05-25T17:18:52.341Z,27.90
2019-05-25T17:21:57.719Z,28.41
2019-05-25T17:25:02.619Z,29.13
2019-05-25T17:28:07.532Z,28.89
2019-05-25T17:31:12.602Z,28.43
2019-05-25T17:34:17.494Z,29.27
2019-05-25T17:37:22.243Z,30.19
2019-05-25T17:40:27.072Z,30.87
2019-05-25T17:43:31.882Z,31.08
2019-05-25T17:46:36.728Z,31.69
2019-05-25T17:49:41.550Z,31.54
2019-05-25T17:52:46.294Z,32.13
2019-05-25T17:55:51.037Z,32.15
2019-05-25T17:58:56.873Z,31.61
2019-05-25T18:02:01.612Z,31.81
2019-05-25T18:05:06.973Z,32.36
2019-05-25T18:08:12.238Z,32.50
2019-05-25T18:11:17.124Z,32.85
2019-05-25T18:14:22.894Z,33.02
2019-05-25T18:17:27.725Z,33.30
2019-05-25T18:20:32.449Z,33.77
2019-05-25T18:23:37.397Z,34.09
2019-05-25T18:26:42.322Z,34.40
2019-05-25T18:29:47.171Z,34.39
2019-05-25T18:32:51.985Z,34.55
2019-05-25T18:35:59.002Z,34.35
2019-05-25T18:39:05.355Z,35.34
2019-05-25T18:42:10.831Z,36.99
2019-05-25T18:45:15.925Z,39.63
2019-05-25T18:48:20.683Z,40.39
2019-05-25T18:51:25.601Z,42.48
2019-05-25T18:54:30.577Z,47.66
2019-05-25T18:57:36.394Z,48.94
2019-05-25T19:00:41.210Z,51.41
2019-05-25T19:03:48.816Z,53.11
2019-05-25T19:06:53.704Z,54.49
2019-05-25T19:09:58.514Z,55.18
2019-05-25T19:13:03.304Z,55.75
2019-05-25T19:16:08.482Z,54.91
2019-05-25T19:19:13.878Z,55.96
2019-05-25T19:22:18.635Z,55.90
2019-05-25T19:25:23.451Z,56.42
2019-05-25T19:28:32.314Z,57.48
2019-05-25T19:31:37.513Z,57.82
2019-05-25T19:34:56.668Z,57.45
2019-05-25T19:37:48.866Z,58.14
2019-05-25T19:40:53.780Z,57.66
2019-05-25T19:43:58.832Z,58.93
2019-05-25T19:47:03.760Z,59.21
2019-05-25T19:50:09.717Z,59.42
2019-05-25T19:53:14.455Z,59.45
2019-05-25T19:56:19.283Z,59.91
2019-05-25T19:59:24.507Z,59.44
2019-05-25T20:02:29.566Z,60.25
2019-05-25T20:05:34.703Z,59.87
2019-05-25T20:08:39.647Z,58.44
2019-05-25T20:11:44.828Z,58.94
2019-05-25T20:14:49.697Z,61.44
2019-05-25T20:17:54.576Z,60.96
2019-05-25T20:20:59.793Z,61.68
2019-05-25T20:24:04.681Z,61.25
2019-05-25T20:27:09.510Z,61.36
2019-05-25T20:30:14.685Z,62.07
2019-05-25T20:33:27.691Z,61.64
2019-05-25T20:36:26.047Z,62.88
2019-05-25T20:39:31.220Z,61.77
2019-05-25T20:42:36.568Z,63.11
2019-05-25T20:45:41.570Z,61.75
2019-05-25T20:48:47.032Z,64.22
2019-05-25T20:51:51.847Z,64.35
2019-05-25T20:54:56.607Z,63.54
2019-05-25T20:58:01.362Z,63.92
2019-05-25T21:01:06.386Z,64.34
2019-05-25T21:04:12.152Z,65.36
2019-05-25T21:07:17.160Z,64.87
2019-05-25T21:10:21.932Z,63.74
2019-05-25T21:13:26.769Z,65.89
2019-05-25T21:16:32.125Z,65.78
2019-05-25T21:19:37.217Z,65.60
2019-05-25T21:22:42.231Z,66.09
2019-05-25T21:25:48.406Z,67.15
2019-05-25T21:28:53.387Z,66.94
2019-05-25T21:31:58.129Z,66.86
2019-05-25T21:35:02.953Z,66.79
2019-05-25T21:38:08.183Z,66.35
2019-05-25T21:41:13.041Z,66.33
2019-05-25T21:44:17.888Z,67.12
2019-05-25T21:47:23.633Z,67.14
2019-05-25T21:50:28.478Z,67.35
2019-05-25T21:53:33.617Z,68.62
2019-05-25T21:56:38.799Z,68.59
2019-05-25T21:59:44.145Z,68.46
2019-05-25T22:02:49.189Z,67.96
2019-05-25T22:05:53.981Z,68.28
2019-05-25T22:08:58.846Z,69.73
2019-05-25T22:12:04.795Z,69.95
2019-05-25T22:15:10.625Z,70.08
2019-05-25T22:18:15.435Z,70.09
2019-05-25T22:21:20.589Z,70.83
2019-05-25T22:24:25.871Z,70.61
2019-05-25T22:27:30.670Z,70.36
2019-05-25T22:30:35.507Z,68.87
2019-05-25T22:33:40.674Z,67.20
2019-05-25T22:36:45.731Z,64.88
2019-05-25T22:39:50.503Z,64.59
2019-05-25T22:42:55.381Z,64.77
2019-05-25T22:46:00.223Z,65.23
2019-05-25T22:49:05.427Z,64.56
2019-05-25T22:52:10.524Z,63.84
2019-05-25T22:55:15.716Z,63.84
2019-05-25T22:58:20.648Z,63.85
2019-05-25T23:01:25.476Z,64.31
2019-05-25T23:04:30.312Z,63.96
2019-05-25T23:07:36.129Z,64.80
2019-05-25T23:10:40.906Z,65.52
2019-05-25T23:13:46.422Z,65.23
2019-05-25T23:16:51.526Z,65.49
2019-05-25T23:19:56.589Z,67.10
2019-05-25T23:23:01.377Z,67.94
2019-05-25T23:26:06.680Z,68.84
2019-05-25T23:29:12.054Z,69.15
2019-05-25T23:32:17.164Z,69.30
2019-05-25T23:35:22.183Z,69.75
2019-05-25T23:38:28.548Z,69.82
2019-05-25T23:41:33.464Z,70.31
2019-05-25T23:44:38.395Z,70.25
2019-05-25T23:47:43.175Z,70.49
2019-05-25T23:50:48.294Z,69.88
2019-05-25T23:53:53.486Z,69.88
2019-05-25T23:56:58.219Z,70.12
